sensor_id;sensor_type;location;lat;lon;timestamp;P1;durP1;ratioP1;P2;durP2;ratioP2
974;SDS011;6115;49.296;10.602;2024-03-29T00:04:02;71.03;;;14.00;;
974;SDS011;6115;49.296;10.602;2024-03-29T00:09:02;71.37;;;12.53;;
974;SDS011;6115;49.296;10.602;2024-03-29T00:14:03;71.77;;;14.33;;
974;SDS011;6115;49.296;10.602;2024-03-29T00:19:03;71.23;;;12.83;;
974;SDS011;6115;49.296;10.602;2024-03-29T00:24:04;70.90;;;13.40;;
974;SDS011;6115;49.296;10.602;2024-03-29T00:29:05;71.77;;;13.53;;
974;SDS011;6115;49.296;10.602;2024-03-29T00:34:05;71.50;;;12.57;;
974;SDS011;6115;49.296;10.602;2024-03-29T00:39:06;71.67;;;13.97;;
974;SDS011;6115;49.296;10.602;2024-03-29T00:44:11;71.47;;;13.23;;
974;SDS011;6115;49.296;10.602;2024-03-29T00:49:11;71.67;;;12.60;;
974;SDS011;6115;49.296;10.602;2024-03-29T00:54:12;71.23;;;14.13;;
974;SDS011;6115;49.296;10.602;2024-03-29T00:59:12;70.87;;;12.73;;
974;SDS011;6115;49.296;10.602;2024-03-29T01:04:13;70.47;;;13.00;;
974;SDS011;6115;49.296;10.602;2024-03-29T01:09:14;70.80;;;12.03;;
974;SDS011;6115;49.296;10.602;2024-03-29T01:14:14;71.50;;;12.00;;
974;SDS011;6115;49.296;10.602;2024-03-29T01:19:15;70.53;;;13.50;;
974;SDS011;6115;49.296;10.602;2024-03-29T01:24:15;71.47;;;13.90;;
974;SDS011;6115;49.296;10.602;2024-03-29T01:29:16;70.60;;;13.10;;
974;SDS011;6115;49.296;10.602;2024-03-29T01:34:16;71.97;;;14.13;;
974;SDS011;6115;49.296;10.602;2024-03-29T01:39:17;70.43;;;12.53;;
974;SDS011;6115;49.296;10.602;2024-03-29T01:44:21;70.90;;;13.60;;
974;SDS011;6115;49.296;10.602;2024-03-29T01:49:21;70.67;;;13.30;;
974;SDS011;6115;49.296;10.602;2024-03-29T01:54:22;71.20;;;13.40;;
974;SDS011;6115;49.296;10.602;2024-03-29T01:59:23;71.50;;;13.70;;
974;SDS011;6115;49.296;10.602;2024-03-29T02:04:26;71.50;;;13.37;;
974;SDS011;6115;49.296;10.602;2024-03-29T02:09:26;70.80;;;13.03;;
974;SDS011;6115;49.296;10.602;2024-03-29T02:14:27;70.87;;;13.13;;
974;SDS011;6115;49.296;10.602;2024-03-29T02:19:27;71.27;;;13.60;;
974;SDS011;6115;49.296;10.602;2024-03-29T02:24:28;71.90;;;14.80;;
974;SDS011;6115;49.296;10.602;2024-03-29T02:29:29;71.07;;;13.60;;
974;SDS011;6115;49.296;10.602;2024-03-29T02:34:30;71.17;;;13.70;;
974;SDS011;6115;49.296;10.602;2024-03-29T02:39:30;71.33;;;13.73;;
974;SDS011;6115;49.296;10.602;2024-03-29T02:44:31;71.07;;;12.50;;
974;SDS011;6115;49.296;10.602;2024-03-29T02:49:32;71.33;;;13.50;;
974;SDS011;6115;49.296;10.602;2024-03-29T02:54:32;71.53;;;12.93;;
974;SDS011;6115;49.296;10.602;2024-03-29T02:59:33;71.40;;;13.30;;
974;SDS011;6115;49.296;10.602;2024-03-29T03:04:34;70.67;;;12.80;;
974;SDS011;6115;49.296;10.602;2024-03-29T03:09:37;75.20;;;13.97;;
974;SDS011;6115;49.296;10.602;2024-03-29T03:14:57;71.13;;;13.53;;
974;SDS011;6115;49.296;10.602;2024-03-29T03:19:58;71.27;;;14.07;;
974;SDS011;6115;49.296;10.602;2024-03-29T03:24:59;71.47;;;13.50;;
974;SDS011;6115;49.296;10.602;2024-03-29T03:29:59;71.47;;;14.03;;
974;SDS011;6115;49.296;10.602;2024-03-29T03:35:00;71.00;;;12.47;;
974;SDS011;6115;49.296;10.602;2024-03-29T03:40:01;71.60;;;13.40;;
974;SDS011;6115;49.296;10.602;2024-03-29T03:45:01;71.10;;;12.30;;
974;SDS011;6115;49.296;10.602;2024-03-29T03:50:03;71.10;;;13.20;;
974;SDS011;6115;49.296;10.602;2024-03-29T03:55:04;71.53;;;12.50;;
974;SDS011;6115;49.296;10.602;2024-03-29T04:00:05;70.67;;;12.53;;
974;SDS011;6115;49.296;10.602;2024-03-29T04:05:06;70.70;;;12.20;;
974;SDS011;6115;49.296;10.602;2024-03-29T04:10:07;71.00;;;13.03;;
974;SDS011;6115;49.296;10.602;2024-03-29T04:15:08;70.70;;;12.77;;
974;SDS011;6115;49.296;10.602;2024-03-29T04:20:09;70.40;;;12.90;;
974;SDS011;6115;49.296;10.602;2024-03-29T04:25:10;70.87;;;12.03;;
974;SDS011;6115;49.296;10.602;2024-03-29T04:30:10;70.90;;;12.53;;
974;SDS011;6115;49.296;10.602;2024-03-29T04:35:11;72.00;;;12.50;;
974;SDS011;6115;49.296;10.602;2024-03-29T04:40:12;70.90;;;11.50;;
974;SDS011;6115;49.296;10.602;2024-03-29T04:45:12;70.23;;;13.63;;
974;SDS011;6115;49.296;10.602;2024-03-29T04:50:13;71.00;;;12.03;;
974;SDS011;6115;49.296;10.602;2024-03-29T04:55:14;69.63;;;12.37;;
974;SDS011;6115;49.296;10.602;2024-03-29T05:00:14;71.07;;;12.53;;
974;SDS011;6115;49.296;10.602;2024-03-29T05:05:15;70.40;;;13.50;;
974;SDS011;6115;49.296;10.602;2024-03-29T05:10:15;70.00;;;12.77;;
974;SDS011;6115;49.296;10.602;2024-03-29T05:15:16;70.20;;;13.00;;
974;SDS011;6115;49.296;10.602;2024-03-29T05:20:17;70.27;;;12.80;;
974;SDS011;6115;49.296;10.602;2024-03-29T05:25:17;71.00;;;11.57;;
974;SDS011;6115;49.296;10.602;2024-03-29T05:30:18;70.17;;;12.50;;
974;SDS011;6115;49.296;10.602;2024-03-29T05:35:19;71.50;;;13.20;;
974;SDS011;6115;49.296;10.602;2024-03-29T05:40:19;70.70;;;13.60;;
974;SDS011;6115;49.296;10.602;2024-03-29T05:45:26;70.13;;;12.90;;
974;SDS011;6115;49.296;10.602;2024-03-29T05:50:28;70.70;;;11.93;;
974;SDS011;6115;49.296;10.602;2024-03-29T05:55:29;70.93;;;13.10;;
974;SDS011;6115;49.296;10.602;2024-03-29T06:00:29;70.37;;;11.70;;
974;SDS011;6115;49.296;10.602;2024-03-29T06:05:30;71.00;;;13.30;;
974;SDS011;6115;49.296;10.602;2024-03-29T06:10:30;70.60;;;12.93;;
974;SDS011;6115;49.296;10.602;2024-03-29T06:15:31;69.73;;;12.13;;
974;SDS011;6115;49.296;10.602;2024-03-29T06:20:50;70.40;;;12.73;;
974;SDS011;6115;49.296;10.602;2024-03-29T06:25:51;69.90;;;12.77;;
974;SDS011;6115;49.296;10.602;2024-03-29T06:30:51;70.90;;;12.60;;
974;SDS011;6115;49.296;10.602;2024-03-29T06:35:55;70.60;;;13.97;;
974;SDS011;6115;49.296;10.602;2024-03-29T06:40:55;71.10;;;14.07;;
974;SDS011;6115;49.296;10.602;2024-03-29T06:45:56;72.50;;;15.50;;
974;SDS011;6115;49.296;10.602;2024-03-29T06:50:58;71.50;;;13.50;;
974;SDS011;6115;49.296;10.602;2024-03-29T06:56:00;72.63;;;14.37;;
974;SDS011;6115;49.296;10.602;2024-03-29T07:01:03;71.40;;;14.20;;
974;SDS011;6115;49.296;10.602;2024-03-29T07:06:04;71.50;;;13.07;;
974;SDS011;6115;49.296;10.602;2024-03-29T07:11:05;71.57;;;13.63;;
974;SDS011;6115;49.296;10.602;2024-03-29T07:16:06;71.47;;;12.87;;
974;SDS011;6115;49.296;10.602;2024-03-29T07:21:09;72.00;;;13.23;;
974;SDS011;6115;49.296;10.602;2024-03-29T07:26:10;72.60;;;13.93;;
974;SDS011;6115;49.296;10.602;2024-03-29T07:31:11;73.27;;;14.83;;
974;SDS011;6115;49.296;10.602;2024-03-29T07:36:12;71.80;;;12.63;;
974;SDS011;6115;49.296;10.602;2024-03-29T07:41:13;72.60;;;12.80;;
974;SDS011;6115;49.296;10.602;2024-03-29T07:46:13;73.03;;;13.70;;
974;SDS011;6115;49.296;10.602;2024-03-29T07:51:14;78.07;;;13.30;;
974;SDS011;6115;49.296;10.602;2024-03-29T07:56:14;79.03;;;15.40;;
974;SDS011;6115;49.296;10.602;2024-03-29T08:01:22;74.60;;;13.60;;
974;SDS011;6115;49.296;10.602;2024-03-29T08:06:23;72.53;;;13.03;;
974;SDS011;6115;49.296;10.602;2024-03-29T08:11:23;73.10;;;13.80;;
974;SDS011;6115;49.296;10.602;2024-03-29T08:16:24;82.03;;;13.90;;
974;SDS011;6115;49.296;10.602;2024-03-29T08:21:24;71.93;;;13.40;;
974;SDS011;6115;49.296;10.602;2024-03-29T08:26:27;76.27;;;13.87;;
974;SDS011;6115;49.296;10.602;2024-03-29T08:31:31;72.40;;;12.47;;
974;SDS011;6115;49.296;10.602;2024-03-29T08:36:31;73.03;;;13.33;;
974;SDS011;6115;49.296;10.602;2024-03-29T08:41:32;73.03;;;14.33;;
974;SDS011;6115;49.296;10.602;2024-03-29T08:46:32;72.80;;;13.40;;
974;SDS011;6115;49.296;10.602;2024-03-29T08:51:33;72.03;;;13.40;;
974;SDS011;6115;49.296;10.602;2024-03-29T08:56:33;70.93;;;12.80;;
974;SDS011;6115;49.296;10.602;2024-03-29T09:01:38;121.47;;;16.50;;
974;SDS011;6115;49.296;10.602;2024-03-29T09:06:42;71.20;;;13.10;;
974;SDS011;6115;49.296;10.602;2024-03-29T09:11:43;71.40;;;14.00;;
974;SDS011;6115;49.296;10.602;2024-03-29T09:16:43;79.07;;;16.47;;
974;SDS011;6115;49.296;10.602;2024-03-29T09:21:47;72.40;;;16.30;;
974;SDS011;6115;49.296;10.602;2024-03-29T09:26:50;72.10;;;14.90;;
974;SDS011;6115;49.296;10.602;2024-03-29T09:31:51;71.50;;;13.90;;
974;SDS011;6115;49.296;10.602;2024-03-29T09:36:52;72.13;;;13.63;;
974;SDS011;6115;49.296;10.602;2024-03-29T09:41:52;71.87;;;14.77;;
974;SDS011;6115;49.296;10.602;2024-03-29T09:46:55;71.77;;;15.60;;
974;SDS011;6115;49.296;10.602;2024-03-29T09:51:57;72.50;;;12.53;;
974;SDS011;6115;49.296;10.602;2024-03-29T09:56:59;72.87;;;14.83;;
974;SDS011;6115;49.296;10.602;2024-03-29T10:02:00;71.43;;;15.43;;
974;SDS011;6115;49.296;10.602;2024-03-29T10:07:09;72.93;;;15.30;;
974;SDS011;6115;49.296;10.602;2024-03-29T10:12:12;72.90;;;16.30;;
974;SDS011;6115;49.296;10.602;2024-03-29T10:17:13;72.50;;;14.90;;
974;SDS011;6115;49.296;10.602;2024-03-29T10:22:14;72.40;;;15.30;;
974;SDS011;6115;49.296;10.602;2024-03-29T10:27:15;73.90;;;16.67;;
974;SDS011;6115;49.296;10.602;2024-03-29T10:32:15;73.20;;;15.37;;
974;SDS011;6115;49.296;10.602;2024-03-29T10:37:18;72.17;;;14.03;;
974;SDS011;6115;49.296;10.602;2024-03-29T10:42:26;71.33;;;13.90;;
974;SDS011;6115;49.296;10.602;2024-03-29T10:47:27;72.07;;;15.07;;
974;SDS011;6115;49.296;10.602;2024-03-29T10:52:30;72.37;;;13.77;;
974;SDS011;6115;49.296;10.602;2024-03-29T10:57:31;72.40;;;15.40;;
974;SDS011;6115;49.296;10.602;2024-03-29T11:07:51;70.57;;;14.00;;
974;SDS011;6115;49.296;10.602;2024-03-29T11:13:01;73.00;;;13.70;;
974;SDS011;6115;49.296;10.602;2024-03-29T11:18:11;72.33;;;14.07;;
974;SDS011;6115;49.296;10.602;2024-03-29T11:23:17;70.80;;;14.27;;
974;SDS011;6115;49.296;10.602;2024-03-29T11:28:22;71.53;;;14.20;;
974;SDS011;6115;49.296;10.602;2024-03-29T11:38:30;79.50;;;17.40;;
974;SDS011;6115;49.296;10.602;2024-03-29T11:43:32;73.63;;;15.23;;
974;SDS011;6115;49.296;10.602;2024-03-29T11:48:34;71.37;;;15.30;;
974;SDS011;6115;49.296;10.602;2024-03-29T11:53:36;71.50;;;15.73;;
974;SDS011;6115;49.296;10.602;2024-03-29T11:58:37;70.60;;;14.50;;
974;SDS011;6115;49.296;10.602;2024-03-29T12:03:39;71.90;;;14.30;;
974;SDS011;6115;49.296;10.602;2024-03-29T12:08:40;71.40;;;15.93;;
974;SDS011;6115;49.296;10.602;2024-03-29T12:13:44;72.47;;;16.70;;
974;SDS011;6115;49.296;10.602;2024-03-29T12:18:46;73.20;;;19.63;;
974;SDS011;6115;49.296;10.602;2024-03-29T12:23:48;74.20;;;21.87;;
974;SDS011;6115;49.296;10.602;2024-03-29T12:28:49;76.37;;;21.90;;
974;SDS011;6115;49.296;10.602;2024-03-29T12:33:51;75.47;;;21.37;;
974;SDS011;6115;49.296;10.602;2024-03-29T12:38:55;74.80;;;22.33;;
974;SDS011;6115;49.296;10.602;2024-03-29T12:43:58;74.90;;;20.90;;
974;SDS011;6115;49.296;10.602;2024-03-29T12:48:59;74.63;;;21.97;;
974;SDS011;6115;49.296;10.602;2024-03-29T12:54:03;73.30;;;21.77;;
974;SDS011;6115;49.296;10.602;2024-03-29T12:59:04;74.57;;;21.40;;
974;SDS011;6115;49.296;10.602;2024-03-29T13:04:05;74.37;;;21.13;;
974;SDS011;6115;49.296;10.602;2024-03-29T13:09:06;75.40;;;20.43;;
974;SDS011;6115;49.296;10.602;2024-03-29T13:14:08;74.20;;;21.30;;
974;SDS011;6115;49.296;10.602;2024-03-29T13:19:09;74.47;;;22.87;;
974;SDS011;6115;49.296;10.602;2024-03-29T13:24:09;82.37;;;22.90;;
974;SDS011;6115;49.296;10.602;2024-03-29T13:29:10;76.00;;;22.00;;
974;SDS011;6115;49.296;10.602;2024-03-29T13:34:13;73.90;;;18.57;;
974;SDS011;6115;49.296;10.602;2024-03-29T13:39:14;73.47;;;18.83;;
974;SDS011;6115;49.296;10.602;2024-03-29T13:44:15;74.87;;;18.73;;
974;SDS011;6115;49.296;10.602;2024-03-29T13:49:17;77.43;;;19.47;;
974;SDS011;6115;49.296;10.602;2024-03-29T13:54:20;75.60;;;20.07;;
974;SDS011;6115;49.296;10.602;2024-03-29T13:59:21;75.30;;;20.27;;
974;SDS011;6115;49.296;10.602;2024-03-29T14:04:22;76.80;;;21.27;;
974;SDS011;6115;49.296;10.602;2024-03-29T14:09:22;77.03;;;21.20;;
974;SDS011;6115;49.296;10.602;2024-03-29T14:14:23;76.77;;;22.00;;
974;SDS011;6115;49.296;10.602;2024-03-29T14:19:23;88.33;;;24.90;;
974;SDS011;6115;49.296;10.602;2024-03-29T14:24:26;335.27;;;303.07;;
974;SDS011;6115;49.296;10.602;2024-03-29T14:29:28;797.80;;;724.97;;
974;SDS011;6115;49.296;10.602;2024-03-29T14:34:29;410.80;;;369.30;;
974;SDS011;6115;49.296;10.602;2024-03-29T14:39:31;464.10;;;414.70;;
974;SDS011;6115;49.296;10.602;2024-03-29T14:44:32;565.40;;;507.60;;
974;SDS011;6115;49.296;10.602;2024-03-29T14:49:33;740.40;;;666.40;;
974;SDS011;6115;49.296;10.602;2024-03-29T14:54:33;736.70;;;657.80;;
974;SDS011;6115;49.296;10.602;2024-03-29T14:59:34;903.80;;;806.50;;
974;SDS011;6115;49.296;10.602;2024-03-29T15:04:36;906.67;;;815.70;;
974;SDS011;6115;49.296;10.602;2024-03-29T15:09:38;898.20;;;806.40;;
974;SDS011;6115;49.296;10.602;2024-03-29T15:14:38;791.23;;;716.37;;
974;SDS011;6115;49.296;10.602;2024-03-29T15:19:39;668.07;;;611.47;;
974;SDS011;6115;49.296;10.602;2024-03-29T15:24:41;555.57;;;508.53;;
974;SDS011;6115;49.296;10.602;2024-03-29T15:29:42;198.97;;;178.50;;
974;SDS011;6115;49.296;10.602;2024-03-29T15:34:42;234.97;;;213.77;;
974;SDS011;6115;49.296;10.602;2024-03-29T15:39:43;92.03;;;41.03;;
974;SDS011;6115;49.296;10.602;2024-03-29T15:44:43;79.40;;;19.93;;
974;SDS011;6115;49.296;10.602;2024-03-29T15:49:44;81.80;;;16.73;;
974;SDS011;6115;49.296;10.602;2024-03-29T15:54:45;78.83;;;17.83;;
974;SDS011;6115;49.296;10.602;2024-03-29T15:59:45;80.50;;;17.93;;
974;SDS011;6115;49.296;10.602;2024-03-29T16:04:47;91.47;;;14.93;;
974;SDS011;6115;49.296;10.602;2024-03-29T16:09:48;82.20;;;17.70;;
974;SDS011;6115;49.296;10.602;2024-03-29T16:14:49;88.23;;;15.90;;
974;SDS011;6115;49.296;10.602;2024-03-29T16:19:50;93.77;;;18.00;;
974;SDS011;6115;49.296;10.602;2024-03-29T16:24:50;93.97;;;17.60;;
974;SDS011;6115;49.296;10.602;2024-03-29T16:29:51;96.37;;;18.73;;
974;SDS011;6115;49.296;10.602;2024-03-29T16:34:51;80.13;;;16.87;;
974;SDS011;6115;49.296;10.602;2024-03-29T16:39:52;99.13;;;19.10;;
974;SDS011;6115;49.296;10.602;2024-03-29T16:44:52;86.23;;;15.70;;
974;SDS011;6115;49.296;10.602;2024-03-29T16:49:53;92.77;;;18.03;;
974;SDS011;6115;49.296;10.602;2024-03-29T16:54:53;95.47;;;17.30;;
974;SDS011;6115;49.296;10.602;2024-03-29T16:59:55;96.80;;;18.57;;
974;SDS011;6115;49.296;10.602;2024-03-29T17:04:55;101.83;;;20.73;;
974;SDS011;6115;49.296;10.602;2024-03-29T17:09:56;96.20;;;17.20;;
974;SDS011;6115;49.296;10.602;2024-03-29T17:14:57;93.73;;;16.40;;
974;SDS011;6115;49.296;10.602;2024-03-29T17:19:58;101.63;;;18.37;;
974;SDS011;6115;49.296;10.602;2024-03-29T17:24:58;89.03;;;17.27;;
974;SDS011;6115;49.296;10.602;2024-03-29T17:29:59;91.03;;;17.00;;
974;SDS011;6115;49.296;10.602;2024-03-29T17:35:00;93.63;;;17.87;;
974;SDS011;6115;49.296;10.602;2024-03-29T17:40:01;85.33;;;17.53;;
974;SDS011;6115;49.296;10.602;2024-03-29T17:45:02;84.83;;;17.80;;
974;SDS011;6115;49.296;10.602;2024-03-29T17:50:03;79.60;;;18.43;;
974;SDS011;6115;49.296;10.602;2024-03-29T17:55:04;77.20;;;18.60;;
974;SDS011;6115;49.296;10.602;2024-03-29T18:00:05;83.73;;;20.63;;
974;SDS011;6115;49.296;10.602;2024-03-29T18:05:08;81.13;;;21.13;;
974;SDS011;6115;49.296;10.602;2024-03-29T18:10:09;80.23;;;20.57;;
974;SDS011;6115;49.296;10.602;2024-03-29T18:15:10;76.90;;;18.50;;
974;SDS011;6115;49.296;10.602;2024-03-29T18:20:11;76.30;;;18.80;;
974;SDS011;6115;49.296;10.602;2024-03-29T18:25:12;76.13;;;20.17;;
974;SDS011;6115;49.296;10.602;2024-03-29T18:30:12;76.27;;;18.13;;
974;SDS011;6115;49.296;10.602;2024-03-29T18:35:13;76.33;;;19.50;;
974;SDS011;6115;49.296;10.602;2024-03-29T18:40:14;79.37;;;21.10;;
974;SDS011;6115;49.296;10.602;2024-03-29T18:45:15;79.83;;;21.57;;
974;SDS011;6115;49.296;10.602;2024-03-29T18:50:19;80.27;;;19.43;;
974;SDS011;6115;49.296;10.602;2024-03-29T18:55:20;75.93;;;19.10;;
974;SDS011;6115;49.296;10.602;2024-03-29T19:00:21;80.07;;;21.40;;
974;SDS011;6115;49.296;10.602;2024-03-29T19:05:21;82.33;;;19.90;;
974;SDS011;6115;49.296;10.602;2024-03-29T19:10:23;75.00;;;18.00;;
974;SDS011;6115;49.296;10.602;2024-03-29T19:15:23;76.67;;;18.60;;
974;SDS011;6115;49.296;10.602;2024-03-29T19:20:24;79.20;;;19.80;;
974;SDS011;6115;49.296;10.602;2024-03-29T19:25:25;78.17;;;18.77;;
974;SDS011;6115;49.296;10.602;2024-03-29T19:30:25;75.77;;;18.03;;
974;SDS011;6115;49.296;10.602;2024-03-29T19:35:26;74.33;;;18.03;;
974;SDS011;6115;49.296;10.602;2024-03-29T19:40:27;74.80;;;19.90;;
974;SDS011;6115;49.296;10.602;2024-03-29T19:45:27;75.60;;;18.50;;
974;SDS011;6115;49.296;10.602;2024-03-29T19:50:28;74.27;;;17.47;;
974;SDS011;6115;49.296;10.602;2024-03-29T19:55:28;72.90;;;18.10;;
974;SDS011;6115;49.296;10.602;2024-03-29T20:00:29;73.77;;;17.93;;
974;SDS011;6115;49.296;10.602;2024-03-29T20:05:30;76.70;;;17.60;;
974;SDS011;6115;49.296;10.602;2024-03-29T20:10:36;74.60;;;18.50;;
974;SDS011;6115;49.296;10.602;2024-03-29T20:15:44;73.73;;;17.50;;
974;SDS011;6115;49.296;10.602;2024-03-29T20:20:47;73.47;;;17.47;;
974;SDS011;6115;49.296;10.602;2024-03-29T20:25:48;74.10;;;18.30;;
974;SDS011;6115;49.296;10.602;2024-03-29T20:30:49;75.50;;;18.40;;
974;SDS011;6115;49.296;10.602;2024-03-29T20:35:49;73.57;;;17.93;;
974;SDS011;6115;49.296;10.602;2024-03-29T20:40:50;74.40;;;18.60;;
974;SDS011;6115;49.296;10.602;2024-03-29T20:45:53;73.80;;;17.63;;
974;SDS011;6115;49.296;10.602;2024-03-29T20:50:57;76.70;;;19.00;;
974;SDS011;6115;49.296;10.602;2024-03-29T20:56:03;76.30;;;19.13;;
974;SDS011;6115;49.296;10.602;2024-03-29T21:01:07;75.60;;;18.53;;
974;SDS011;6115;49.296;10.602;2024-03-29T21:06:08;73.57;;;17.33;;
974;SDS011;6115;49.296;10.602;2024-03-29T21:11:08;72.60;;;16.70;;
974;SDS011;6115;49.296;10.602;2024-03-29T21:16:09;74.30;;;18.23;;
974;SDS011;6115;49.296;10.602;2024-03-29T21:21:09;74.63;;;17.10;;
974;SDS011;6115;49.296;10.602;2024-03-29T21:26:10;74.23;;;17.10;;
974;SDS011;6115;49.296;10.602;2024-03-29T21:31:10;73.77;;;17.10;;
974;SDS011;6115;49.296;10.602;2024-03-29T21:36:11;73.57;;;17.23;;
974;SDS011;6115;49.296;10.602;2024-03-29T21:41:11;74.00;;;16.50;;
974;SDS011;6115;49.296;10.602;2024-03-29T21:46:12;74.97;;;17.50;;
974;SDS011;6115;49.296;10.602;2024-03-29T21:51:13;73.47;;;17.97;;
974;SDS011;6115;49.296;10.602;2024-03-29T21:56:14;75.90;;;17.27;;
974;SDS011;6115;49.296;10.602;2024-03-29T22:01:15;73.50;;;17.30;;
974;SDS011;6115;49.296;10.602;2024-03-29T22:06:19;75.23;;;18.33;;
974;SDS011;6115;49.296;10.602;2024-03-29T22:11:20;79.60;;;17.63;;
974;SDS011;6115;49.296;10.602;2024-03-29T22:16:21;73.37;;;16.17;;
974;SDS011;6115;49.296;10.602;2024-03-29T22:21:21;75.67;;;17.60;;
974;SDS011;6115;49.296;10.602;2024-03-29T22:26:22;74.77;;;18.10;;
974;SDS011;6115;49.296;10.602;2024-03-29T22:31:24;76.07;;;18.50;;
974;SDS011;6115;49.296;10.602;2024-03-29T22:36:31;75.07;;;16.00;;
974;SDS011;6115;49.296;10.602;2024-03-29T22:41:32;77.90;;;18.40;;
974;SDS011;6115;49.296;10.602;2024-03-29T22:46:32;75.27;;;17.17;;
974;SDS011;6115;49.296;10.602;2024-03-29T22:51:33;75.77;;;16.63;;
974;SDS011;6115;49.296;10.602;2024-03-29T22:56:33;76.13;;;15.67;;
974;SDS011;6115;49.296;10.602;2024-03-29T23:01:34;72.17;;;15.40;;
974;SDS011;6115;49.296;10.602;2024-03-29T23:06:34;71.00;;;14.80;;
974;SDS011;6115;49.296;10.602;2024-03-29T23:11:35;70.97;;;15.53;;
974;SDS011;6115;49.296;10.602;2024-03-29T23:16:36;71.63;;;15.23;;
974;SDS011;6115;49.296;10.602;2024-03-29T23:21:36;71.80;;;14.90;;
974;SDS011;6115;49.296;10.602;2024-03-29T23:26:37;71.40;;;15.10;;
974;SDS011;6115;49.296;10.602;2024-03-29T23:31:38;71.00;;;15.20;;
974;SDS011;6115;49.296;10.602;2024-03-29T23:36:38;71.10;;;15.47;;
974;SDS011;6115;49.296;10.602;2024-03-29T23:41:39;75.00;;;15.70;;
974;SDS011;6115;49.296;10.602;2024-03-29T23:46:39;71.50;;;14.63;;
974;SDS011;6115;49.296;10.602;2024-03-29T23:51:40;72.97;;;16.60;;
974;SDS011;6115;49.296;10.602;2024-03-29T23:56:41;71.37;;;15.30;;
